sensor_id;sensor_type;location;lat;lon;timestamp;P1;durP1;ratioP1;P2;durP2;ratioP2
2884;SDS011;54691;48.262;11.586;2022-07-10T00:01:29;3.90;;;1.47;;
2884;SDS011;54691;48.262;11.586;2022-07-10T00:08:26;4.45;;;1.80;;
2884;SDS011;54691;48.262;11.586;2022-07-10T00:15:23;4.22;;;1.92;;
2884;SDS011;54691;48.262;11.586;2022-07-10T00:22:21;7.20;;;3.00;;
2884;SDS011;54691;48.262;11.586;2022-07-10T00:29:18;1.77;;;1.37;;
2884;SDS011;54691;48.262;11.586;2022-07-10T00:36:15;2.70;;;1.70;;
2884;SDS011;54691;48.262;11.586;2022-07-10T00:43:12;3.98;;;1.65;;
2884;SDS011;54691;48.262;11.586;2022-07-10T00:50:09;3.02;;;1.80;;
2884;SDS011;54691;48.262;11.586;2022-07-10T00:57:08;5.65;;;1.95;;
2884;SDS011;54691;48.262;11.586;2022-07-10T01:04:05;4.17;;;2.55;;
2884;SDS011;54691;48.262;11.586;2022-07-10T01:11:02;7.67;;;2.65;;
2884;SDS011;54691;48.262;11.586;2022-07-10T01:17:59;7.00;;;2.80;;
2884;SDS011;54691;48.262;11.586;2022-07-10T01:24:56;4.80;;;2.85;;
2884;SDS011;54691;48.262;11.586;2022-07-10T01:31:53;9.55;;;3.20;;
2884;SDS011;54691;48.262;11.586;2022-07-10T01:38:53;7.47;;;3.60;;
2884;SDS011;54691;48.262;11.586;2022-07-10T01:45:50;8.00;;;3.50;;
2884;SDS011;54691;48.262;11.586;2022-07-10T01:52:47;6.47;;;3.90;;
2884;SDS011;54691;48.262;11.586;2022-07-10T01:59:44;5.25;;;3.25;;
2884;SDS011;54691;48.262;11.586;2022-07-10T02:06:57;5.40;;;3.40;;
2884;SDS011;54691;48.262;11.586;2022-07-10T02:13:54;6.90;;;4.05;;
2884;SDS011;54691;48.262;11.586;2022-07-10T02:20:51;4.65;;;3.20;;
2884;SDS011;54691;48.262;11.586;2022-07-10T02:34:58;7.45;;;4.33;;
2884;SDS011;54691;48.262;11.586;2022-07-10T02:41:54;7.87;;;4.53;;
2884;SDS011;54691;48.262;11.586;2022-07-10T02:48:51;8.03;;;4.30;;
2884;SDS011;54691;48.262;11.586;2022-07-10T02:55:48;5.72;;;4.03;;
2884;SDS011;54691;48.262;11.586;2022-07-10T03:02:46;10.43;;;4.25;;
2884;SDS011;54691;48.262;11.586;2022-07-10T03:09:43;8.15;;;4.17;;
2884;SDS011;54691;48.262;11.586;2022-07-10T03:16:40;7.05;;;4.62;;
2884;SDS011;54691;48.262;11.586;2022-07-10T03:23:37;6.92;;;4.08;;
2884;SDS011;54691;48.262;11.586;2022-07-10T03:27:18;7.67;;;4.42;;
2884;SDS011;54691;48.262;11.586;2022-07-10T03:34:16;11.57;;;4.17;;
2884;SDS011;54691;48.262;11.586;2022-07-10T03:41:13;6.15;;;4.12;;
2884;SDS011;54691;48.262;11.586;2022-07-10T03:48:11;6.60;;;4.15;;
2884;SDS011;54691;48.262;11.586;2022-07-10T03:55:08;7.33;;;4.37;;
2884;SDS011;54691;48.262;11.586;2022-07-10T04:02:05;6.25;;;4.40;;
2884;SDS011;54691;48.262;11.586;2022-07-10T04:09:02;6.62;;;4.40;;
2884;SDS011;54691;48.262;11.586;2022-07-10T04:16:00;4.92;;;3.33;;
2884;SDS011;54691;48.262;11.586;2022-07-10T04:22:57;6.35;;;3.72;;
2884;SDS011;54691;48.262;11.586;2022-07-10T04:29:54;5.50;;;3.87;;
2884;SDS011;54691;48.262;11.586;2022-07-10T04:36:51;7.90;;;3.65;;
2884;SDS011;54691;48.262;11.586;2022-07-10T04:43:48;4.37;;;3.20;;
2884;SDS011;54691;48.262;11.586;2022-07-10T04:50:45;6.53;;;3.35;;
2884;SDS011;54691;48.262;11.586;2022-07-10T04:57:42;4.87;;;3.60;;
2884;SDS011;54691;48.262;11.586;2022-07-10T05:04:40;7.05;;;3.65;;
2884;SDS011;54691;48.262;11.586;2022-07-10T05:11:37;6.37;;;3.58;;
2884;SDS011;54691;48.262;11.586;2022-07-10T05:18:34;7.10;;;4.10;;
2884;SDS011;54691;48.262;11.586;2022-07-10T05:25:31;5.97;;;3.70;;
2884;SDS011;54691;48.262;11.586;2022-07-10T05:32:28;6.53;;;3.95;;
2884;SDS011;54691;48.262;11.586;2022-07-10T05:39:26;5.20;;;3.92;;
2884;SDS011;54691;48.262;11.586;2022-07-10T05:46:23;5.00;;;3.67;;
2884;SDS011;54691;48.262;11.586;2022-07-10T05:53:20;6.03;;;4.00;;
2884;SDS011;54691;48.262;11.586;2022-07-10T06:00:18;7.00;;;4.15;;
2884;SDS011;54691;48.262;11.586;2022-07-10T06:07:15;6.22;;;3.77;;
2884;SDS011;54691;48.262;11.586;2022-07-10T06:14:13;6.17;;;3.35;;
2884;SDS011;54691;48.262;11.586;2022-07-10T06:21:10;6.30;;;4.33;;
2884;SDS011;54691;48.262;11.586;2022-07-10T06:28:07;8.88;;;4.78;;
2884;SDS011;54691;48.262;11.586;2022-07-10T06:35:04;5.42;;;3.83;;
2884;SDS011;54691;48.262;11.586;2022-07-10T06:42:03;7.80;;;4.00;;
2884;SDS011;54691;48.262;11.586;2022-07-10T06:49:00;8.50;;;3.77;;
2884;SDS011;54691;48.262;11.586;2022-07-10T06:55:57;4.90;;;3.25;;
2884;SDS011;54691;48.262;11.586;2022-07-10T07:02:54;5.28;;;2.92;;
2884;SDS011;54691;48.262;11.586;2022-07-10T07:09:51;3.87;;;2.27;;
2884;SDS011;54691;48.262;11.586;2022-07-10T07:16:49;5.30;;;2.67;;
2884;SDS011;54691;48.262;11.586;2022-07-10T07:20:29;3.37;;;2.40;;
2884;SDS011;54691;48.262;11.586;2022-07-10T07:24:15;12.80;;;2.73;;
2884;SDS011;54691;48.262;11.586;2022-07-10T07:31:14;5.83;;;2.83;;
2884;SDS011;54691;48.262;11.586;2022-07-10T07:38:13;5.40;;;2.58;;
2884;SDS011;54691;48.262;11.586;2022-07-10T07:45:10;3.35;;;2.15;;
2884;SDS011;54691;48.262;11.586;2022-07-10T07:52:12;7.37;;;2.00;;
2884;SDS011;54691;48.262;11.586;2022-07-10T07:59:08;5.33;;;2.15;;
2884;SDS011;54691;48.262;11.586;2022-07-10T08:06:06;9.38;;;2.05;;
2884;SDS011;54691;48.262;11.586;2022-07-10T08:13:03;6.30;;;1.12;;
2884;SDS011;54691;48.262;11.586;2022-07-10T08:20:01;3.50;;;1.30;;
2884;SDS011;54691;48.262;11.586;2022-07-10T08:26:58;5.47;;;1.55;;
2884;SDS011;54691;48.262;11.586;2022-07-10T08:33:55;1.70;;;1.00;;
2884;SDS011;54691;48.262;11.586;2022-07-10T08:40:53;1.15;;;0.78;;
2884;SDS011;54691;48.262;11.586;2022-07-10T08:47:53;8.50;;;1.10;;
2884;SDS011;54691;48.262;11.586;2022-07-10T08:54:53;4.28;;;0.90;;
2884;SDS011;54691;48.262;11.586;2022-07-10T09:01:51;2.83;;;1.00;;
2884;SDS011;54691;48.262;11.586;2022-07-10T09:09:03;5.30;;;0.70;;
2884;SDS011;54691;48.262;11.586;2022-07-10T09:12:48;4.45;;;1.05;;
2884;SDS011;54691;48.262;11.586;2022-07-10T09:19:31;1.45;;;0.65;;
2884;SDS011;54691;48.262;11.586;2022-07-10T09:26:28;3.05;;;0.90;;
2884;SDS011;54691;48.262;11.586;2022-07-10T09:33:30;1.62;;;0.85;;
2884;SDS011;54691;48.262;11.586;2022-07-10T09:40:29;2.02;;;0.60;;
2884;SDS011;54691;48.262;11.586;2022-07-10T09:47:26;1.60;;;0.70;;
2884;SDS011;54691;48.262;11.586;2022-07-10T09:54:23;6.97;;;1.12;;
2884;SDS011;54691;48.262;11.586;2022-07-10T10:01:21;3.75;;;0.70;;
2884;SDS011;54691;48.262;11.586;2022-07-10T10:08:29;4.60;;;0.88;;
2884;SDS011;54691;48.262;11.586;2022-07-10T10:18:50;6.10;;;0.98;;
2884;SDS011;54691;48.262;11.586;2022-07-10T10:22:40;1.17;;;0.60;;
2884;SDS011;54691;48.262;11.586;2022-07-10T10:29:37;1.98;;;0.95;;
2884;SDS011;54691;48.262;11.586;2022-07-10T10:40:29;0.70;;;0.70;;
2884;SDS011;54691;48.262;11.586;2022-07-10T10:47:13;3.80;;;0.98;;
2884;SDS011;54691;48.262;11.586;2022-07-10T10:54:10;1.80;;;0.50;;
2884;SDS011;54691;48.262;11.586;2022-07-10T11:04:58;6.60;;;0.60;;
2884;SDS011;54691;48.262;11.586;2022-07-10T11:15:35;1.27;;;0.50;;
2884;SDS011;54691;48.262;11.586;2022-07-10T11:26:29;1.67;;;0.68;;
2884;SDS011;54691;48.262;11.586;2022-07-10T11:33:41;0.35;;;0.30;;
2884;SDS011;54691;48.262;11.586;2022-07-10T11:37:14;10.70;;;1.00;;
2884;SDS011;54691;48.262;11.586;2022-07-10T11:44:13;1.22;;;0.50;;
2884;SDS011;54691;48.262;11.586;2022-07-10T11:51:18;3.83;;;0.90;;
2884;SDS011;54691;48.262;11.586;2022-07-10T11:54:47;3.00;;;0.80;;
2884;SDS011;54691;48.262;11.586;2022-07-10T12:01:45;1.02;;;0.50;;
2884;SDS011;54691;48.262;11.586;2022-07-10T12:12:21;1.22;;;0.70;;
2884;SDS011;54691;48.262;11.586;2022-07-10T12:19:18;0.65;;;0.37;;
2884;SDS011;54691;48.262;11.586;2022-07-10T12:26:15;0.78;;;0.55;;
2884;SDS011;54691;48.262;11.586;2022-07-10T12:33:13;2.17;;;0.70;;
2884;SDS011;54691;48.262;11.586;2022-07-10T12:40:29;4.85;;;0.37;;
2884;SDS011;54691;48.262;11.586;2022-07-10T12:47:12;1.70;;;0.60;;
2884;SDS011;54691;48.262;11.586;2022-07-10T12:57:57;2.12;;;0.50;;
2884;SDS011;54691;48.262;11.586;2022-07-10T13:04:54;1.42;;;0.50;;
2884;SDS011;54691;48.262;11.586;2022-07-10T13:11:52;0.93;;;0.50;;
2884;SDS011;54691;48.262;11.586;2022-07-10T13:18:50;3.37;;;0.75;;
2884;SDS011;54691;48.262;11.586;2022-07-10T13:25:50;1.80;;;0.50;;
2884;SDS011;54691;48.262;11.586;2022-07-10T13:32:47;0.45;;;0.30;;
2884;SDS011;54691;48.262;11.586;2022-07-10T13:39:44;0.72;;;0.40;;
2884;SDS011;54691;48.262;11.586;2022-07-10T13:46:43;2.87;;;0.30;;
2884;SDS011;54691;48.262;11.586;2022-07-10T13:53:40;1.55;;;0.37;;
2884;SDS011;54691;48.262;11.586;2022-07-10T14:04:14;0.35;;;0.30;;
2884;SDS011;54691;48.262;11.586;2022-07-10T14:11:11;1.82;;;0.50;;
2884;SDS011;54691;48.262;11.586;2022-07-10T14:18:08;0.62;;;0.30;;
2884;SDS011;54691;48.262;11.586;2022-07-10T14:25:07;1.50;;;0.53;;
2884;SDS011;54691;48.262;11.586;2022-07-10T14:32:05;3.65;;;0.60;;
2884;SDS011;54691;48.262;11.586;2022-07-10T14:39:02;0.55;;;0.40;;
2884;SDS011;54691;48.262;11.586;2022-07-10T14:46:01;0.47;;;0.40;;
2884;SDS011;54691;48.262;11.586;2022-07-10T14:53:00;0.95;;;0.50;;
2884;SDS011;54691;48.262;11.586;2022-07-10T14:59:57;7.75;;;0.65;;
2884;SDS011;54691;48.262;11.586;2022-07-10T15:06:54;0.78;;;0.53;;
2884;SDS011;54691;48.262;11.586;2022-07-10T15:13:51;1.20;;;0.50;;
2884;SDS011;54691;48.262;11.586;2022-07-10T15:20:50;2.27;;;0.50;;
2884;SDS011;54691;48.262;11.586;2022-07-10T15:27:47;1.92;;;0.70;;
2884;SDS011;54691;48.262;11.586;2022-07-10T15:34:44;0.70;;;0.40;;
2884;SDS011;54691;48.262;11.586;2022-07-10T15:41:41;0.85;;;0.70;;
2884;SDS011;54691;48.262;11.586;2022-07-10T15:48:42;1.80;;;0.60;;
2884;SDS011;54691;48.262;11.586;2022-07-10T15:55:39;1.00;;;0.50;;
2884;SDS011;54691;48.262;11.586;2022-07-10T16:02:36;3.98;;;0.40;;
2884;SDS011;54691;48.262;11.586;2022-07-10T16:09:33;0.90;;;0.50;;
2884;SDS011;54691;48.262;11.586;2022-07-10T16:16:32;1.10;;;0.40;;
2884;SDS011;54691;48.262;11.586;2022-07-10T16:23:32;0.55;;;0.40;;
2884;SDS011;54691;48.262;11.586;2022-07-10T16:30:29;1.30;;;0.50;;
2884;SDS011;54691;48.262;11.586;2022-07-10T16:37:26;0.35;;;0.35;;
2884;SDS011;54691;48.262;11.586;2022-07-10T16:44:23;1.95;;;0.40;;
2884;SDS011;54691;48.262;11.586;2022-07-10T16:51:23;1.25;;;0.50;;
2884;SDS011;54691;48.262;11.586;2022-07-10T16:58:20;1.72;;;0.50;;
2884;SDS011;54691;48.262;11.586;2022-07-10T17:05:19;1.07;;;0.57;;
2884;SDS011;54691;48.262;11.586;2022-07-10T17:12:16;1.27;;;0.55;;
2884;SDS011;54691;48.262;11.586;2022-07-10T17:19:13;3.58;;;0.50;;
2884;SDS011;54691;48.262;11.586;2022-07-10T17:26:12;1.60;;;0.37;;
2884;SDS011;54691;48.262;11.586;2022-07-10T17:33:12;1.15;;;0.50;;
2884;SDS011;54691;48.262;11.586;2022-07-10T17:40:09;0.50;;;0.30;;
2884;SDS011;54691;48.262;11.586;2022-07-10T17:47:08;0.30;;;0.30;;
2884;SDS011;54691;48.262;11.586;2022-07-10T17:54:05;0.65;;;0.30;;
2884;SDS011;54691;48.262;11.586;2022-07-10T18:01:02;1.95;;;0.50;;
2884;SDS011;54691;48.262;11.586;2022-07-10T18:07:59;5.03;;;0.40;;
2884;SDS011;54691;48.262;11.586;2022-07-10T18:14:56;2.15;;;0.60;;
2884;SDS011;54691;48.262;11.586;2022-07-10T18:21:53;1.45;;;0.33;;
2884;SDS011;54691;48.262;11.586;2022-07-10T18:28:50;2.08;;;0.47;;
2884;SDS011;54691;48.262;11.586;2022-07-10T18:35:49;0.53;;;0.30;;
2884;SDS011;54691;48.262;11.586;2022-07-10T18:42:46;0.95;;;0.28;;
2884;SDS011;54691;48.262;11.586;2022-07-10T18:49:43;1.87;;;0.60;;
2884;SDS011;54691;48.262;11.586;2022-07-10T18:56:39;2.02;;;0.60;;
2884;SDS011;54691;48.262;11.586;2022-07-10T19:03:55;0.85;;;0.20;;
2884;SDS011;54691;48.262;11.586;2022-07-10T19:14:31;1.07;;;0.20;;
2884;SDS011;54691;48.262;11.586;2022-07-10T19:21:26;0.90;;;0.40;;
2884;SDS011;54691;48.262;11.586;2022-07-10T19:28:23;1.25;;;0.40;;
2884;SDS011;54691;48.262;11.586;2022-07-10T19:35:20;3.27;;;0.20;;
2884;SDS011;54691;48.262;11.586;2022-07-10T19:42:19;1.05;;;0.30;;
2884;SDS011;54691;48.262;11.586;2022-07-10T19:49:16;1.60;;;0.50;;
2884;SDS011;54691;48.262;11.586;2022-07-10T19:56:13;2.15;;;1.00;;
2884;SDS011;54691;48.262;11.586;2022-07-10T20:03:10;5.90;;;1.27;;
2884;SDS011;54691;48.262;11.586;2022-07-10T20:10:08;7.58;;;2.62;;
2884;SDS011;54691;48.262;11.586;2022-07-10T20:17:05;7.22;;;2.10;;
2884;SDS011;54691;48.262;11.586;2022-07-10T20:24:03;4.12;;;1.15;;
2884;SDS011;54691;48.262;11.586;2022-07-10T20:31:01;3.60;;;0.80;;
2884;SDS011;54691;48.262;11.586;2022-07-10T20:37:58;1.72;;;0.68;;
2884;SDS011;54691;48.262;11.586;2022-07-10T20:44:55;2.30;;;0.70;;
2884;SDS011;54691;48.262;11.586;2022-07-10T20:51:52;3.77;;;1.47;;
2884;SDS011;54691;48.262;11.586;2022-07-10T20:58:51;3.65;;;1.20;;
2884;SDS011;54691;48.262;11.586;2022-07-10T21:05:48;7.50;;;1.30;;
2884;SDS011;54691;48.262;11.586;2022-07-10T21:12:45;1.85;;;0.75;;
2884;SDS011;54691;48.262;11.586;2022-07-10T21:19:42;2.25;;;0.70;;
2884;SDS011;54691;48.262;11.586;2022-07-10T21:26:39;2.30;;;0.55;;
2884;SDS011;54691;48.262;11.586;2022-07-10T21:33:36;1.55;;;0.47;;
2884;SDS011;54691;48.262;11.586;2022-07-10T21:40:33;3.30;;;0.50;;
2884;SDS011;54691;48.262;11.586;2022-07-10T21:47:30;1.05;;;0.40;;
2884;SDS011;54691;48.262;11.586;2022-07-10T21:54:27;3.30;;;0.70;;
2884;SDS011;54691;48.262;11.586;2022-07-10T22:01:24;0.65;;;0.40;;
2884;SDS011;54691;48.262;11.586;2022-07-10T22:08:22;2.12;;;0.68;;
2884;SDS011;54691;48.262;11.586;2022-07-10T22:15:19;1.42;;;0.80;;
2884;SDS011;54691;48.262;11.586;2022-07-10T22:22:16;0.95;;;0.37;;
2884;SDS011;54691;48.262;11.586;2022-07-10T22:29:13;3.47;;;0.40;;
2884;SDS011;54691;48.262;11.586;2022-07-10T22:36:10;6.03;;;0.80;;
2884;SDS011;54691;48.262;11.586;2022-07-10T22:43:07;1.85;;;0.50;;
2884;SDS011;54691;48.262;11.586;2022-07-10T22:50:04;1.60;;;0.70;;
2884;SDS011;54691;48.262;11.586;2022-07-10T22:57:02;2.77;;;0.78;;
2884;SDS011;54691;48.262;11.586;2022-07-10T23:03:59;4.05;;;0.50;;
2884;SDS011;54691;48.262;11.586;2022-07-10T23:10:59;1.25;;;0.30;;
2884;SDS011;54691;48.262;11.586;2022-07-10T23:17:56;4.05;;;0.62;;
2884;SDS011;54691;48.262;11.586;2022-07-10T23:24:54;2.27;;;0.37;;
2884;SDS011;54691;48.262;11.586;2022-07-10T23:31:52;1.77;;;0.40;;
2884;SDS011;54691;48.262;11.586;2022-07-10T23:38:49;0.88;;;0.53;;
2884;SDS011;54691;48.262;11.586;2022-07-10T23:45:46;5.58;;;0.60;;
2884;SDS011;54691;48.262;11.586;2022-07-10T23:53:01;3.97;;;0.57;;
2884;SDS011;54691;48.262;11.586;2022-07-10T23:59:58;4.85;;;0.70;;
